createdAt,value
2022-11-25T00:01:36.179Z,9.15
2022-11-25T00:04:04.654Z,8.40
2022-11-25T00:06:35.677Z,8.30
2022-11-25T00:09:07.007Z,8.63
2022-11-25T00:11:39.152Z,7.63
2022-11-25T00:14:08.599Z,7.88
2022-11-25T00:16:36.996Z,7.18
2022-11-25T00:19:05.379Z,7.78
2022-11-25T00:21:35.504Z,7.32
2022-11-25T00:24:08.528Z,7.72
2022-11-25T00:26:38.476Z,7.53
2022-11-25T00:29:08.863Z,7.80
2022-11-25T00:31:40.135Z,7.68
2022-11-25T00:34:08.799Z,7.97
2022-11-25T00:36:38.923Z,7.60
2022-11-25T00:39:10.954Z,7.82
2022-11-25T00:41:58.499Z,8.45
2022-11-25T00:44:40.699Z,6.90
2022-11-25T00:47:12.037Z,8.50
2022-11-25T00:49:43.283Z,8.63
2022-11-25T00:52:16.814Z,8.00
2022-11-25T00:54:45.932Z,8.77
2022-11-25T00:57:16.526Z,8.48
2022-11-25T00:59:45.003Z,8.18
2022-11-25T01:02:14.603Z,8.45
2022-11-25T01:04:43.309Z,8.85
2022-11-25T01:07:12.013Z,8.27
2022-11-25T01:09:40.454Z,8.73
2022-11-25T01:12:09.566Z,8.65
2022-11-25T01:14:39.791Z,8.15
2022-11-25T01:17:08.544Z,8.88
2022-11-25T01:19:40.050Z,8.10
2022-11-25T01:22:08.589Z,7.25
2022-11-25T01:24:37.359Z,8.27
2022-11-25T01:27:06.009Z,9.25
2022-11-25T01:29:34.336Z,7.70
2022-11-25T01:32:04.313Z,7.82
2022-11-25T01:34:34.744Z,7.32
2022-11-25T01:37:03.862Z,7.18
2022-11-25T01:39:33.327Z,6.57
2022-11-25T01:42:02.854Z,7.03
2022-11-25T01:44:33.227Z,6.43
2022-11-25T01:47:12.373Z,6.30
2022-11-25T01:49:45.209Z,7.50
2022-11-25T01:52:19.657Z,5.93
2022-11-25T01:54:54.274Z,5.90
2022-11-25T01:57:29.118Z,6.03
2022-11-25T02:00:01.531Z,6.50
2022-11-25T02:02:34.312Z,5.90
2022-11-25T02:05:05.520Z,5.45
2022-11-25T02:07:38.701Z,5.20
2022-11-25T02:10:13.913Z,5.65
2022-11-25T02:12:47.319Z,5.40
2022-11-25T02:15:17.139Z,5.35
2022-11-25T02:17:47.250Z,5.47
2022-11-25T02:20:17.728Z,5.13
2022-11-25T02:22:56.828Z,5.88
2022-11-25T02:25:30.047Z,4.93
2022-11-25T02:28:03.341Z,5.05
2022-11-25T02:30:31.787Z,5.40
2022-11-25T02:33:01.976Z,5.13
2022-11-25T02:35:35.057Z,5.35
2022-11-25T02:38:11.281Z,5.00
2022-11-25T02:40:47.803Z,5.18
2022-11-25T02:43:17.833Z,5.28
2022-11-25T02:45:54.642Z,5.03
2022-11-25T02:48:39.721Z,4.72
2022-11-25T02:51:14.381Z,5.25
2022-11-25T02:53:43.255Z,4.97
2022-11-25T02:56:14.881Z,4.85
2022-11-25T02:58:43.356Z,4.95
2022-11-25T03:01:11.981Z,4.60
2022-11-25T03:03:40.899Z,4.60
2022-11-25T03:06:13.311Z,4.65
2022-11-25T03:08:41.727Z,5.25
2022-11-25T03:11:14.361Z,5.30
2022-11-25T03:13:42.694Z,5.07
2022-11-25T03:16:11.385Z,4.85
2022-11-25T03:18:40.046Z,4.80
2022-11-25T03:21:08.543Z,5.30
2022-11-25T03:23:36.841Z,4.90
2022-11-25T03:26:08.255Z,4.90
2022-11-25T03:28:37.900Z,5.45
2022-11-25T03:31:11.575Z,5.50
2022-11-25T03:33:40.160Z,5.50
2022-11-25T03:36:09.158Z,5.05
2022-11-25T03:38:37.515Z,6.20
2022-11-25T03:41:06.814Z,5.50
2022-11-25T03:43:35.752Z,6.53
2022-11-25T03:46:05.995Z,5.70
2022-11-25T03:48:34.519Z,6.45
2022-11-25T03:51:02.821Z,6.25
2022-11-25T03:53:31.092Z,5.90
2022-11-25T03:56:01.758Z,5.70
2022-11-25T03:58:31.152Z,5.85
2022-11-25T04:01:02.180Z,5.53
2022-11-25T04:03:32.701Z,5.78
2022-11-25T04:06:01.505Z,5.72
2022-11-25T04:08:30.895Z,5.85
2022-11-25T04:11:00.153Z,5.05
2022-11-25T04:13:31.012Z,5.07
2022-11-25T04:15:59.603Z,5.50
2022-11-25T04:18:28.522Z,5.55
2022-11-25T04:21:00.856Z,5.10
2022-11-25T04:23:29.446Z,5.07
2022-11-25T04:26:02.319Z,4.97
2022-11-25T04:28:38.597Z,5.18
2022-11-25T04:31:09.095Z,4.80
2022-11-25T04:33:40.300Z,4.72
2022-11-25T04:36:11.510Z,4.90
2022-11-25T04:38:39.872Z,4.70
2022-11-25T04:41:09.488Z,4.38
2022-11-25T04:43:41.548Z,4.32
2022-11-25T04:46:17.597Z,4.55
2022-11-25T04:48:49.913Z,4.47
2022-11-25T04:51:19.931Z,4.65
2022-11-25T04:53:51.705Z,5.00
2022-11-25T04:56:21.620Z,4.05
2022-11-25T04:59:10.521Z,4.28
2022-11-25T05:01:42.695Z,4.03
2022-11-25T05:04:22.257Z,4.30
2022-11-25T05:06:52.321Z,4.43
2022-11-25T05:09:23.036Z,4.32
2022-11-25T05:12:01.976Z,4.43
2022-11-25T05:14:30.266Z,4.63
2022-11-25T05:16:58.728Z,4.43
2022-11-25T05:19:27.236Z,5.32
2022-11-25T05:21:57.033Z,4.55
2022-11-25T05:24:26.175Z,5.07
2022-11-25T05:26:55.109Z,4.75
2022-11-25T05:29:23.821Z,4.72
2022-11-25T05:31:52.070Z,5.03
2022-11-25T05:34:20.549Z,4.50
2022-11-25T05:36:49.893Z,4.78
2022-11-25T05:39:23.180Z,5.22
2022-11-25T05:42:16.118Z,5.15
2022-11-25T05:44:44.461Z,5.30
2022-11-25T05:47:12.683Z,5.28
2022-11-25T05:49:42.295Z,5.15
2022-11-25T05:52:10.587Z,4.88
2022-11-25T05:54:53.199Z,4.90
2022-11-25T05:57:24.527Z,5.05
2022-11-25T05:59:56.784Z,5.40
2022-11-25T06:02:43.395Z,5.53
2022-11-25T06:05:14.748Z,5.25
2022-11-25T06:07:43.631Z,5.60
2022-11-25T06:10:14.435Z,5.63
2022-11-25T06:12:43.293Z,5.50
2022-11-25T06:15:12.990Z,5.30
2022-11-25T06:17:41.776Z,5.35
2022-11-25T06:20:15.362Z,5.45
2022-11-25T06:22:43.682Z,5.50
2022-11-25T06:25:13.451Z,5.30
2022-11-25T06:28:11.414Z,6.25
2022-11-25T06:30:32.442Z,5.25
2022-11-25T06:33:12.979Z,6.65
2022-11-25T06:35:42.730Z,6.83
2022-11-25T06:38:11.018Z,6.75
2022-11-25T06:40:40.742Z,7.38
2022-11-25T06:43:09.002Z,7.60
2022-11-25T06:45:37.317Z,7.50
2022-11-25T06:48:06.592Z,7.43
2022-11-25T06:50:34.968Z,7.65
2022-11-25T06:53:03.428Z,7.60
2022-11-25T06:55:31.724Z,7.25
2022-11-25T06:58:20.614Z,7.50
2022-11-25T07:00:49.603Z,5.15
2022-11-25T07:03:18.018Z,4.97
2022-11-25T07:05:46.441Z,4.13
2022-11-25T07:08:14.737Z,4.25
2022-11-25T07:10:43.044Z,4.35
2022-11-25T07:13:12.823Z,4.78
2022-11-25T07:15:41.162Z,4.47
2022-11-25T07:18:09.472Z,4.25
2022-11-25T07:20:37.766Z,4.50
2022-11-25T07:23:06.266Z,4.30
2022-11-25T07:25:34.861Z,4.82
2022-11-25T07:28:03.372Z,5.38
2022-11-25T07:33:21.464Z,4.60
2022-11-25T07:35:49.746Z,4.68
2022-11-25T07:38:18.111Z,4.30
2022-11-25T07:40:46.434Z,4.43
2022-11-25T07:43:14.840Z,4.32
2022-11-25T07:45:46.229Z,4.43
2022-11-25T07:48:14.609Z,4.77
2022-11-25T07:50:42.850Z,4.47
2022-11-25T07:53:11.112Z,4.57
2022-11-25T07:55:39.657Z,5.43
2022-11-25T07:58:07.937Z,5.13
2022-11-25T08:00:36.304Z,5.20
2022-11-25T08:03:06.269Z,4.70
2022-11-25T08:05:35.203Z,4.90
2022-11-25T08:08:03.581Z,5.03
2022-11-25T08:10:32.067Z,4.93
2022-11-25T08:13:00.615Z,4.68
2022-11-25T08:15:28.971Z,4.30
2022-11-25T08:17:57.262Z,4.68
2022-11-25T08:20:26.960Z,4.85
2022-11-25T08:22:55.699Z,5.30
2022-11-25T08:25:24.071Z,4.68
2022-11-25T08:27:52.414Z,4.53
2022-11-25T08:30:25.943Z,5.10
2022-11-25T08:32:54.767Z,4.93
2022-11-25T08:35:22.980Z,4.45
2022-11-25T08:37:53.022Z,4.30
2022-11-25T08:40:21.722Z,5.20
2022-11-25T08:42:50.032Z,4.75
2022-11-25T08:45:18.472Z,4.35
2022-11-25T08:47:46.750Z,5.15
2022-11-25T08:50:16.229Z,5.05
2022-11-25T08:52:44.819Z,4.57
2022-11-25T08:55:14.621Z,4.97
2022-11-25T08:57:43.101Z,4.97
2022-11-25T09:00:13.484Z,4.07
2022-11-25T09:02:41.937Z,4.93
2022-11-25T09:05:13.622Z,4.53
2022-11-25T09:07:42.516Z,4.35
2022-11-25T09:10:17.523Z,5.13
2022-11-25T09:12:46.090Z,3.97
2022-11-25T09:15:14.534Z,3.90
2022-11-25T09:17:42.898Z,4.20
2022-11-25T09:20:11.985Z,4.22
2022-11-25T09:22:40.301Z,4.25
2022-11-25T09:25:09.794Z,4.85
2022-11-25T09:27:39.666Z,4.47
2022-11-25T09:30:09.684Z,4.53
2022-11-25T09:32:38.000Z,4.38
2022-11-25T09:35:07.188Z,4.90
2022-11-25T09:37:35.703Z,4.35
2022-11-25T09:40:05.339Z,5.40
2022-11-25T09:43:02.729Z,4.37
2022-11-25T09:46:02.386Z,4.95
2022-11-25T09:48:53.026Z,5.65
2022-11-25T09:51:24.361Z,4.70
2022-11-25T09:53:55.849Z,4.90
2022-11-25T09:56:34.711Z,4.70
2022-11-25T09:59:12.597Z,4.78
2022-11-25T10:01:49.453Z,4.82
2022-11-25T10:04:25.807Z,5.50
2022-11-25T10:07:01.105Z,5.78
2022-11-25T10:09:33.861Z,5.13
2022-11-25T10:12:11.741Z,5.75
2022-11-25T10:14:49.343Z,5.10
2022-11-25T10:17:29.368Z,5.45
2022-11-25T10:20:03.266Z,5.20
2022-11-25T10:22:35.742Z,5.20
2022-11-25T10:25:15.511Z,5.22
2022-11-25T10:27:49.519Z,5.47
2022-11-25T10:30:23.929Z,5.75
2022-11-25T10:33:02.027Z,4.78
2022-11-25T10:35:35.180Z,5.18
2022-11-25T10:38:08.130Z,5.75
2022-11-25T10:40:36.393Z,5.43
2022-11-25T10:43:13.981Z,5.60
2022-11-25T10:45:51.994Z,6.20
2022-11-25T10:48:45.496Z,6.40
2022-11-25T10:51:31.978Z,6.70
2022-11-25T10:54:16.880Z,6.10
2022-11-25T10:56:50.700Z,6.00
2022-11-25T10:59:29.020Z,5.55
2022-11-25T11:02:19.332Z,6.15
2022-11-25T11:04:56.485Z,5.75
2022-11-25T11:07:27.544Z,5.63
2022-11-25T11:10:18.261Z,5.20
2022-11-25T11:12:58.734Z,6.80
2022-11-25T11:15:29.732Z,6.38
2022-11-25T11:18:01.647Z,6.88
2022-11-25T11:20:32.300Z,6.50
2022-11-25T11:25:39.862Z,5.45
2022-11-25T11:28:29.074Z,6.15
2022-11-25T11:31:02.420Z,5.72
2022-11-25T11:33:37.762Z,6.10
2022-11-25T11:36:32.154Z,5.40
2022-11-25T11:39:22.352Z,5.75
2022-11-25T11:41:57.665Z,5.50
2022-11-25T11:44:36.047Z,6.65
2022-11-25T11:47:18.750Z,6.03
2022-11-25T11:50:23.293Z,5.95
2022-11-25T11:53:01.100Z,5.65
2022-11-25T11:56:18.980Z,5.40
2022-11-25T11:59:01.308Z,6.28
2022-11-25T12:01:46.612Z,5.88
2022-11-25T12:04:22.086Z,6.07
2022-11-25T12:07:03.159Z,6.13
2022-11-25T12:09:35.659Z,6.30
2022-11-25T12:12:08.194Z,6.38
2022-11-25T12:14:43.607Z,5.63
2022-11-25T12:17:18.125Z,5.97
2022-11-25T12:19:56.435Z,7.15
2022-11-25T12:22:31.395Z,6.82
2022-11-25T12:25:08.987Z,5.82
2022-11-25T12:27:42.350Z,6.03
2022-11-25T12:30:16.272Z,6.43
2022-11-25T12:33:06.678Z,5.80
2022-11-25T12:35:53.923Z,5.95
2022-11-25T12:38:37.765Z,6.45
2022-11-25T12:41:18.866Z,6.13
2022-11-25T12:43:50.928Z,6.75
2022-11-25T12:46:28.712Z,6.28
2022-11-25T12:48:58.995Z,6.28
2022-11-25T12:52:05.642Z,6.80
2022-11-25T12:55:06.121Z,6.22
2022-11-25T12:58:17.693Z,7.25
2022-11-25T13:01:34.458Z,6.13
2022-11-25T13:04:43.412Z,6.97
2022-11-25T13:07:28.898Z,6.40
2022-11-25T13:10:37.021Z,6.93
2022-11-25T13:13:24.172Z,6.72
2022-11-25T13:15:55.187Z,6.28
2022-11-25T13:18:28.319Z,6.97
2022-11-25T13:20:57.474Z,6.55
2022-11-25T13:23:31.465Z,6.38
2022-11-25T13:26:48.221Z,5.75
2022-11-25T13:30:00.454Z,6.53
2022-11-25T13:32:40.170Z,6.28
2022-11-25T13:35:52.058Z,6.13
2022-11-25T13:38:40.109Z,6.88
2022-11-25T13:41:47.051Z,6.03
2022-11-25T13:44:27.970Z,7.35
2022-11-25T13:46:58.375Z,6.28
2022-11-25T13:49:51.565Z,6.88
2022-11-25T13:52:36.538Z,6.63
2022-11-25T13:55:21.416Z,6.47
2022-11-25T13:58:15.913Z,6.10
2022-11-25T14:01:29.518Z,5.63
2022-11-25T14:04:01.036Z,5.70
2022-11-25T14:06:43.093Z,6.38
2022-11-25T14:09:32.408Z,6.18
2022-11-25T14:12:17.778Z,7.63
2022-11-25T14:15:04.584Z,6.07
2022-11-25T14:18:05.168Z,6.80
2022-11-25T14:20:44.478Z,5.82
2022-11-25T14:23:54.136Z,6.47
2022-11-25T14:26:48.889Z,5.97
2022-11-25T14:29:22.774Z,6.13
2022-11-25T14:31:57.372Z,6.47
2022-11-25T14:34:32.929Z,5.82
2022-11-25T14:37:09.524Z,6.05
2022-11-25T14:39:44.672Z,6.72
2022-11-25T14:42:17.569Z,6.28
2022-11-25T14:44:50.155Z,5.93
2022-11-25T14:47:25.369Z,6.03
2022-11-25T14:50:18.737Z,6.07
2022-11-25T14:52:47.666Z,6.53
2022-11-25T14:55:28.341Z,5.13
2022-11-25T14:57:57.024Z,6.22
2022-11-25T15:00:25.730Z,5.78
2022-11-25T15:02:58.041Z,5.55
2022-11-25T15:05:33.129Z,5.47
2022-11-25T15:08:09.936Z,6.50
2022-11-25T15:10:44.168Z,5.97
2022-11-25T15:13:28.624Z,6.22
2022-11-25T15:16:08.403Z,5.82
2022-11-25T15:18:39.367Z,5.90
2022-11-25T15:21:08.100Z,5.80
2022-11-25T15:23:39.260Z,6.18
2022-11-25T15:26:20.428Z,5.70
2022-11-25T15:28:55.662Z,5.57
2022-11-25T15:31:30.183Z,6.45
2022-11-25T15:34:02.496Z,6.15
2022-11-25T15:36:31.314Z,6.18
2022-11-25T15:39:25.444Z,5.68
2022-11-25T15:41:56.275Z,6.25
2022-11-25T15:44:28.582Z,6.65
2022-11-25T15:47:02.240Z,6.20
2022-11-25T15:49:33.255Z,6.18
2022-11-25T15:52:08.475Z,6.85
2022-11-25T15:54:42.927Z,6.32
2022-11-25T15:57:19.344Z,6.07
2022-11-25T15:59:51.444Z,6.25
2022-11-25T16:02:49.075Z,6.13
2022-11-25T16:05:37.900Z,5.65
2022-11-25T16:08:30.911Z,5.75
2022-11-25T16:11:02.492Z,6.22
2022-11-25T16:13:36.544Z,6.43
2022-11-25T16:16:15.746Z,6.10
2022-11-25T16:19:06.068Z,6.20
2022-11-25T16:21:51.616Z,6.60
2022-11-25T16:24:33.878Z,8.00
2022-11-25T16:27:04.313Z,6.65
2022-11-25T16:29:36.717Z,6.38
2022-11-25T16:32:18.614Z,6.60
2022-11-25T16:34:47.276Z,5.97
2022-11-25T16:37:17.144Z,6.97
2022-11-25T16:39:45.625Z,7.30
2022-11-25T16:42:23.756Z,7.25
2022-11-25T16:44:53.634Z,6.80
2022-11-25T16:47:24.156Z,5.70
2022-11-25T16:49:52.419Z,7.13
2022-11-25T16:52:22.420Z,6.95
2022-11-25T16:54:50.784Z,6.10
2022-11-25T16:57:22.560Z,6.70
2022-11-25T16:59:58.809Z,6.32
2022-11-25T17:02:27.639Z,6.28
2022-11-25T17:05:15.495Z,6.70
2022-11-25T17:07:45.253Z,6.25
2022-11-25T17:10:14.255Z,5.37
2022-11-25T17:12:45.383Z,6.47
2022-11-25T17:15:17.783Z,5.63
2022-11-25T17:17:47.862Z,6.40
2022-11-25T17:20:18.812Z,7.32
2022-11-25T17:22:49.002Z,7.88
2022-11-25T17:25:17.977Z,6.90
2022-11-25T17:27:46.926Z,6.03
2022-11-25T17:30:20.765Z,6.30
2022-11-25T17:32:53.714Z,5.50
2022-11-25T17:35:22.752Z,6.03
2022-11-25T17:37:52.489Z,6.38
2022-11-25T17:40:21.018Z,6.50
2022-11-25T17:42:50.142Z,5.80
2022-11-25T17:45:21.586Z,6.50
2022-11-25T17:47:50.552Z,6.47
2022-11-25T17:50:21.743Z,7.03
2022-11-25T17:52:50.476Z,7.53
2022-11-25T17:55:21.908Z,8.45
2022-11-25T17:57:50.802Z,6.72
2022-11-25T18:00:23.015Z,7.32
2022-11-25T18:02:51.992Z,8.27
2022-11-25T18:05:23.078Z,7.35
2022-11-25T18:07:52.252Z,7.75
2022-11-25T18:10:25.730Z,6.85
2022-11-25T18:12:56.411Z,7.20
2022-11-25T18:15:27.406Z,8.25
2022-11-25T18:18:03.328Z,7.57
2022-11-25T18:20:33.087Z,7.75
2022-11-25T18:23:01.811Z,7.50
2022-11-25T18:25:33.725Z,7.50
2022-11-25T18:28:02.820Z,9.30
2022-11-25T18:30:34.809Z,8.98
2022-11-25T18:33:06.234Z,9.40
2022-11-25T18:35:36.776Z,8.95
2022-11-25T18:38:06.203Z,8.52
2022-11-25T18:40:39.758Z,8.30
2022-11-25T18:43:14.629Z,7.63
2022-11-25T18:45:43.183Z,7.38
2022-11-25T18:48:17.711Z,8.30
2022-11-25T18:50:47.807Z,8.13
2022-11-25T18:53:16.587Z,8.40
2022-11-25T18:55:47.693Z,7.50
2022-11-25T18:58:21.174Z,8.30
2022-11-25T19:00:52.495Z,8.80
2022-11-25T19:03:24.367Z,8.48
2022-11-25T19:05:54.202Z,7.68
2022-11-25T19:08:22.652Z,8.32
2022-11-25T19:10:52.816Z,8.65
2022-11-25T19:13:27.652Z,9.43
2022-11-25T19:15:58.248Z,8.52
2022-11-25T19:18:29.788Z,8.13
2022-11-25T19:20:58.116Z,8.73
2022-11-25T19:23:28.274Z,8.27
2022-11-25T19:26:03.148Z,8.18
2022-11-25T19:28:32.666Z,8.30
2022-11-25T19:31:04.473Z,8.60
2022-11-25T19:33:36.548Z,7.65
2022-11-25T19:36:05.366Z,8.35
2022-11-25T19:38:34.795Z,8.45
2022-11-25T19:41:04.731Z,8.65
2022-11-25T19:43:33.171Z,8.45
2022-11-25T19:46:03.383Z,8.20
2022-11-25T19:48:38.873Z,9.05
2022-11-25T19:51:07.501Z,8.20
2022-11-25T19:53:35.823Z,8.43
2022-11-25T19:56:05.847Z,8.50
2022-11-25T19:58:34.313Z,8.63
2022-11-25T20:01:05.918Z,8.57
2022-11-25T20:03:36.732Z,9.07
2022-11-25T20:06:06.713Z,8.38
2022-11-25T20:08:35.049Z,8.15
2022-11-25T20:11:03.353Z,8.95
2022-11-25T20:13:34.657Z,9.77
2022-11-25T20:16:03.302Z,10.90
2022-11-25T20:18:31.759Z,10.25
2022-11-25T20:21:05.162Z,9.73
2022-11-25T20:23:43.034Z,8.57
2022-11-25T20:26:18.128Z,8.40
2022-11-25T20:28:48.579Z,8.07
2022-11-25T20:31:16.947Z,9.05
2022-11-25T20:33:45.383Z,9.18
2022-11-25T20:36:17.256Z,9.00
2022-11-25T20:38:49.463Z,8.80
2022-11-25T20:41:21.683Z,9.20
2022-11-25T20:43:54.821Z,8.52
2022-11-25T20:46:27.024Z,8.32
2022-11-25T20:48:57.813Z,9.40
2022-11-25T20:51:27.180Z,8.93
2022-11-25T20:53:58.209Z,9.02
2022-11-25T20:56:28.241Z,9.75
2022-11-25T20:58:58.038Z,9.07
2022-11-25T21:01:26.416Z,9.03
2022-11-25T21:03:54.948Z,9.63
2022-11-25T21:06:27.985Z,9.75
2022-11-25T21:08:59.313Z,8.90
2022-11-25T21:11:28.280Z,9.73
2022-11-25T21:13:57.924Z,9.38
2022-11-25T21:16:26.522Z,9.15
2022-11-25T21:18:55.202Z,9.50
2022-11-25T21:21:30.659Z,9.43
2022-11-25T21:24:02.565Z,10.10
2022-11-25T21:26:30.833Z,10.32
2022-11-25T21:29:00.428Z,10.10
2022-11-25T21:31:29.032Z,9.18
2022-11-25T21:33:59.848Z,9.55
2022-11-25T21:39:04.396Z,8.70
2022-11-25T21:41:32.834Z,8.68
2022-11-25T21:44:05.591Z,8.65
2022-11-25T21:46:34.193Z,8.75
2022-11-25T21:49:02.991Z,8.27
2022-11-25T21:51:31.306Z,8.35
2022-11-25T21:53:59.726Z,8.95
2022-11-25T21:56:31.793Z,8.43
2022-11-25T21:59:04.786Z,8.50
2022-11-25T22:01:33.705Z,8.10
2022-11-25T22:04:02.035Z,8.32
2022-11-25T22:06:32.010Z,8.27
2022-11-25T22:09:00.370Z,7.63
2022-11-25T22:11:33.119Z,8.18
2022-11-25T22:14:05.542Z,8.18
2022-11-25T22:16:37.378Z,8.30
2022-11-25T22:19:06.120Z,8.32
2022-11-25T22:21:34.420Z,8.25
2022-11-25T22:24:03.079Z,8.38
2022-11-25T22:26:34.348Z,8.98
2022-11-25T22:29:04.522Z,9.32
2022-11-25T22:31:32.957Z,9.38
2022-11-25T22:34:01.306Z,9.00
2022-11-25T22:36:35.564Z,9.00
2022-11-25T22:39:15.579Z,9.02
2022-11-25T22:41:46.713Z,9.27
2022-11-25T22:44:22.504Z,8.25
2022-11-25T22:46:52.130Z,8.48
2022-11-25T22:49:31.286Z,8.43
2022-11-25T22:51:59.885Z,8.45
2022-11-25T22:54:28.239Z,8.80
2022-11-25T22:56:57.598Z,9.43
2022-11-25T22:59:27.263Z,8.82
2022-11-25T23:01:55.614Z,8.18
2022-11-25T23:04:23.947Z,9.80
2022-11-25T23:06:53.754Z,9.30
2022-11-25T23:09:22.211Z,8.10
2022-11-25T23:11:50.913Z,8.15
2022-11-25T23:14:19.193Z,8.73
2022-11-25T23:16:48.861Z,8.90
2022-11-25T23:19:17.863Z,7.90
2022-11-25T23:21:46.579Z,8.25
2022-11-25T23:24:17.975Z,8.27
2022-11-25T23:26:46.748Z,8.13
2022-11-25T23:29:16.862Z,8.20
2022-11-25T23:31:45.169Z,8.60
2022-11-25T23:34:14.969Z,8.30
2022-11-25T23:36:46.666Z,7.47
2022-11-25T23:39:21.551Z,8.45
2022-11-25T23:41:50.502Z,8.20
2022-11-25T23:44:24.628Z,8.60
2022-11-25T23:46:54.301Z,7.75
2022-11-25T23:49:29.278Z,7.68
2022-11-25T23:52:04.595Z,7.60
2022-11-25T23:54:40.993Z,7.63
2022-11-25T23:57:15.222Z,7.63
2022-11-25T23:59:43.716Z,7.93
